Time;durP1;ratioP1;P1;durP2;ratioP2;P2;SDS_P1;SDS_P2;PMS_P1;PMS_P2;Temp;Humidity;BMP_temperature;BMP_pressure;BME280_temperature;BME280_humidity;BME280_pressure;Samples;Min_cycle;Max_cycle;Signal;HPM_P1;HPM_P2
2023/12/21 00:01:48;;;;;;;24.52;14.20;;;9.10;99.90;;;;;;5081660;28;20032;-83
2023/12/21 00:04:14;;;;;;;23.77;13.25;;;9.20;99.90;;;;;;5077832;27;20592;-84
2023/12/21 00:06:41;;;;;;;28.83;14.95;;;9.20;99.90;;;;;;5062069;28;20032;-79
2023/12/21 00:09:07;;;;;;;22.73;13.10;;;9.10;99.90;;;;;;5078768;28;20316;-81
2023/12/21 00:11:34;;;;;;;25.60;13.68;;;9.20;99.90;;;;;;5096961;27;20016;-82
2023/12/21 00:14:00;;;;;;;18.85;11.98;;;9.20;99.90;;;;;;5059682;28;20442;-82
2023/12/21 00:16:26;;;;;;;32.30;13.00;;;9.20;99.90;;;;;;5097151;27;20036;-83
2023/12/21 00:18:53;;;;;;;21.40;12.05;;;9.20;99.90;;;;;;5079564;28;20513;-81
2023/12/21 00:21:19;;;;;;;26.23;12.13;;;9.20;99.90;;;;;;5079101;28;20047;-80
2023/12/21 00:23:46;;;;;;;25.65;11.48;;;9.20;99.90;;;;;;5078072;28;20055;-81
2023/12/21 00:26:12;;;;;;;23.13;13.13;;;9.20;99.90;;;;;;5079480;28;20031;-82
2023/12/21 00:28:39;;;;;;;31.35;12.65;;;9.20;99.90;;;;;;5079104;28;20035;-76
2023/12/21 00:31:05;;;;;;;22.15;12.02;;;9.20;99.90;;;;;;5077621;28;20054;-81
2023/12/21 00:33:32;;;;;;;22.75;12.65;;;9.20;99.90;;;;;;5064591;28;20046;-82
2023/12/21 00:35:58;;;;;;;21.55;12.32;;;9.20;99.90;;;;;;5076591;28;20042;-81
2023/12/21 00:38:25;;;;;;;28.55;15.10;;;9.20;99.90;;;;;;5078675;28;20031;-84
2023/12/21 00:40:52;;;;;;;27.75;14.18;;;9.20;99.90;;;;;;5080209;27;20036;-83
2023/12/21 00:43:19;;;;;;;31.40;15.88;;;9.20;99.90;;;;;;5099078;27;20046;-84
2023/12/21 00:45:45;;;;;;;28.88;14.23;;;9.20;99.90;;;;;;5097531;27;20026;-80
2023/12/21 00:48:13;;;;;;;25.08;15.10;;;9.20;99.90;;;;;;5096339;28;20031;-84
2023/12/21 00:50:39;;;;;;;22.35;14.52;;;9.20;99.90;;;;;;5062302;27;20402;-84
2023/12/21 00:53:05;;;;;;;28.02;15.80;;;9.20;99.90;;;;;;5080752;28;20386;-86
2023/12/21 00:55:32;;;;;;;28.20;15.25;;;9.20;99.90;;;;;;5081345;28;20034;-84
2023/12/21 00:57:58;;;;;;;29.65;15.63;;;9.20;99.90;;;;;;5063558;28;20039;-82
2023/12/21 01:00:25;;;;;;;26.75;14.57;;;9.20;99.90;;;;;;5110178;27;20027;-80
2023/12/21 01:02:51;;;;;;;24.60;15.32;;;9.30;99.90;;;;;;5079335;28;20039;-86
2023/12/21 01:05:18;;;;;;;30.83;15.65;;;9.20;99.90;;;;;;5061188;28;20505;-82
2023/12/21 01:07:45;;;;;;;37.05;18.40;;;9.20;99.90;;;;;;5076608;28;20466;-85
2023/12/21 01:10:11;;;;;;;27.38;15.15;;;9.30;99.90;;;;;;5062862;28;20027;-78
2023/12/21 01:12:38;;;;;;;25.55;15.45;;;9.20;99.90;;;;;;5076906;28;20040;-82
2023/12/21 01:15:04;;;;;;;20.83;13.68;;;9.20;99.90;;;;;;5078830;28;20039;-85
2023/12/21 01:17:31;;;;;;;30.67;14.82;;;9.20;99.90;;;;;;5061073;28;20044;-81
2023/12/21 01:19:58;;;;;;;36.95;16.58;;;9.20;99.90;;;;;;5062294;28;20075;-83
2023/12/21 01:22:24;;;;;;;34.00;16.23;;;9.20;99.90;;;;;;5061691;28;20035;-82
2023/12/21 01:24:50;;;;;;;37.78;18.60;;;9.20;99.90;;;;;;5077401;28;20034;-84
2023/12/21 01:27:16;;;;;;;34.20;17.48;;;9.20;99.90;;;;;;5081062;28;20554;-81
2023/12/21 01:29:43;;;;;;;28.73;14.68;;;9.20;99.90;;;;;;5077310;28;20039;-84
2023/12/21 01:32:09;;;;;;;33.65;17.67;;;9.20;99.90;;;;;;5093091;28;20036;-81
2023/12/21 01:34:35;;;;;;;37.60;17.02;;;9.20;99.90;;;;;;5062838;28;20597;-83
2023/12/21 01:37:02;;;;;;;33.13;15.77;;;9.20;99.90;;;;;;5097500;28;20066;-81
2023/12/21 01:39:28;;;;;;;28.10;15.77;;;9.20;99.90;;;;;;5095930;28;20027;-83
2023/12/21 01:41:55;;;;;;;33.10;16.38;;;9.20;99.90;;;;;;5094953;28;20048;-83
2023/12/21 01:44:21;;;;;;;33.50;16.95;;;9.20;99.90;;;;;;5101947;28;20028;-79
2023/12/21 01:46:47;;;;;;;42.08;17.55;;;9.20;99.90;;;;;;5100111;28;20039;-84
2023/12/21 01:49:14;;;;;;;31.77;16.10;;;9.20;99.90;;;;;;5078917;28;20043;-83
2023/12/21 01:51:41;;;;;;;31.45;15.77;;;9.10;99.90;;;;;;5079341;28;20027;-81
2023/12/21 01:54:08;;;;;;;29.63;14.77;;;9.20;99.90;;;;;;5091924;28;20027;-75
2023/12/21 01:56:34;;;;;;;38.20;16.58;;;9.20;99.90;;;;;;5098208;27;20031;-80
2023/12/21 01:59:00;;;;;;;25.98;14.45;;;9.20;99.90;;;;;;5082384;28;20039;-84
2023/12/21 02:01:27;;;;;;;33.60;15.40;;;9.20;99.90;;;;;;5065768;28;20032;-86
2023/12/21 02:03:54;;;;;;;28.80;13.57;;;9.20;99.90;;;;;;5064060;28;20044;-85
2023/12/21 02:06:21;;;;;;;32.03;14.05;;;9.20;99.90;;;;;;5082750;27;20738;-84
2023/12/21 02:08:48;;;;;;;32.97;14.38;;;9.20;99.90;;;;;;5101042;28;20050;-82
2023/12/21 02:11:14;;;;;;;29.88;13.35;;;9.20;99.90;;;;;;5080518;28;20046;-81
2023/12/21 02:13:41;;;;;;;23.98;10.88;;;9.20;99.90;;;;;;5083170;28;20032;-81
2023/12/21 02:16:16;;;;;;;35.55;12.15;;;9.20;99.90;;;;;;5082440;28;20493;-85
2023/12/21 02:18:43;;;;;;;25.02;11.98;;;9.20;99.90;;;;;;5101689;28;20035;-76
2023/12/21 02:21:12;;;;;;;21.40;10.35;;;9.20;99.90;;;;;;5064277;28;20058;-83
2023/12/21 02:23:42;;;;;;;21.58;10.05;;;9.20;99.90;;;;;;5064961;28;20023;-83
2023/12/21 02:26:10;;;;;;;22.38;10.07;;;9.20;99.90;;;;;;5111928;27;20486;-83
2023/12/21 02:28:37;;;;;;;21.55;9.50;;;9.20;99.90;;;;;;5047652;28;20923;-85
2023/12/21 02:31:03;;;;;;;27.13;12.20;;;9.20;99.90;;;;;;5081994;28;20042;-84
2023/12/21 02:33:30;;;;;;;43.85;14.13;;;9.20;99.90;;;;;;5079301;28;20034;-80
2023/12/21 02:35:56;;;;;;;29.80;11.65;;;9.20;99.90;;;;;;5063401;28;20050;-81
2023/12/21 02:38:23;;;;;;;35.15;13.70;;;9.20;99.90;;;;;;5079992;28;20035;-81
2023/12/21 02:40:49;;;;;;;28.55;11.20;;;9.20;99.90;;;;;;5048949;28;20050;-85
2023/12/21 02:43:16;;;;;;;27.98;10.48;;;9.20;99.90;;;;;;5081770;28;20540;-82
2023/12/21 02:45:42;;;;;;;26.48;11.60;;;9.20;99.90;;;;;;5082964;28;20042;-83
2023/12/21 02:48:10;;;;;;;30.45;12.80;;;9.20;99.90;;;;;;5076754;28;20050;-76
2023/12/21 02:50:36;;;;;;;26.23;11.48;;;9.20;99.90;;;;;;5061909;28;20040;-80
2023/12/21 02:53:02;;;;;;;29.77;11.95;;;9.20;99.90;;;;;;5049083;28;20054;-82
2023/12/21 02:55:29;;;;;;;20.70;9.63;;;9.20;99.90;;;;;;5046821;28;20426;-82
2023/12/21 02:57:55;;;;;;;25.00;11.38;;;9.20;99.90;;;;;;5098862;27;20049;-80
2023/12/21 03:00:21;;;;;;;19.85;9.45;;;9.20;99.90;;;;;;5098594;28;20046;-79
2023/12/21 03:02:48;;;;;;;25.67;10.95;;;9.20;99.90;;;;;;5063281;28;20035;-80
2023/12/21 03:05:14;;;;;;;36.60;14.20;;;9.20;99.90;;;;;;5079011;28;20039;-79
2023/12/21 03:07:40;;;;;;;34.38;13.32;;;9.20;99.90;;;;;;5063439;28;20042;-84
2023/12/21 03:10:07;;;;;;;28.10;11.45;;;9.20;99.90;;;;;;5064011;28;20430;-76
2023/12/21 03:12:33;;;;;;;25.95;11.02;;;9.20;99.90;;;;;;5080819;28;20899;-82
2023/12/21 03:15:00;;;;;;;27.02;11.38;;;9.20;99.90;;;;;;5063973;28;20035;-83
2023/12/21 03:17:26;;;;;;;29.40;11.02;;;9.20;99.90;;;;;;5063140;28;20024;-82
2023/12/21 03:19:53;;;;;;;29.35;10.43;;;9.20;99.90;;;;;;5048076;28;20035;-77
2023/12/21 03:22:20;;;;;;;25.45;10.52;;;9.20;99.90;;;;;;5080123;28;20042;-84
2023/12/21 03:24:46;;;;;;;22.13;8.73;;;9.20;99.90;;;;;;5078399;28;20031;-83
2023/12/21 03:27:13;;;;;;;27.30;10.68;;;9.20;99.90;;;;;;5062562;28;20062;-82
2023/12/21 03:29:40;;;;;;;25.30;9.85;;;9.20;99.90;;;;;;5064673;28;20049;-84
2023/12/21 03:32:07;;;;;;;24.00;9.50;;;9.20;99.90;;;;;;5079363;27;20947;-84
2023/12/21 03:34:33;;;;;;;31.25;9.90;;;9.20;99.90;;;;;;5078322;28;20036;-83
2023/12/21 03:36:59;;;;;;;28.17;10.20;;;9.20;99.90;;;;;;5080810;28;20038;-84
2023/12/21 03:39:25;;;;;;;27.08;9.57;;;9.20;99.90;;;;;;5082809;28;20042;-85
2023/12/21 03:41:52;;;;;;;21.80;9.77;;;9.20;99.90;;;;;;5066489;28;20035;-77
2023/12/21 03:44:18;;;;;;;28.23;12.88;;;9.20;99.90;;;;;;5079029;28;20035;-84
2023/12/21 03:46:44;;;;;;;32.63;10.40;;;9.20;99.90;;;;;;5078887;28;20047;-80
2023/12/21 03:49:10;;;;;;;26.25;10.65;;;9.20;99.90;;;;;;5044866;28;20035;-84
2023/12/21 03:51:37;;;;;;;28.65;12.07;;;9.20;99.90;;;;;;5045706;27;20423;-82
2023/12/21 03:54:03;;;;;;;29.52;10.43;;;9.20;99.90;;;;;;5047307;28;20052;-76
2023/12/21 03:56:30;;;;;;;32.47;13.60;;;9.20;99.90;;;;;;5044520;28;20042;-80
2023/12/21 03:58:56;;;;;;;24.58;12.52;;;9.20;99.90;;;;;;5077742;28;20039;-84
2023/12/21 04:01:24;;;;;;;32.10;13.73;;;9.20;99.90;;;;;;5063193;28;20505;-83
2023/12/21 04:03:50;;;;;;;26.77;11.07;;;9.20;99.90;;;;;;5078731;28;20039;-77
2023/12/21 04:06:16;;;;;;;32.70;11.52;;;9.20;99.90;;;;;;5058297;27;20047;-82
2023/12/21 04:08:43;;;;;;;27.90;11.07;;;9.20;99.90;;;;;;5077838;28;20062;-83
2023/12/21 04:11:09;;;;;;;29.25;11.60;;;9.20;99.90;;;;;;5078845;28;20027;-82
2023/12/21 04:13:35;;;;;;;37.30;13.50;;;9.20;99.90;;;;;;5045788;28;20038;-82
2023/12/21 04:16:02;;;;;;;25.73;11.25;;;9.20;99.90;;;;;;5061210;28;20032;-76
2023/12/21 04:18:29;;;;;;;28.98;11.50;;;9.20;99.90;;;;;;5058916;28;20040;-83
2023/12/21 04:20:56;;;;;;;24.20;10.88;;;9.20;99.90;;;;;;5061234;28;21190;-85
2023/12/21 04:23:24;;;;;;;29.52;11.35;;;9.30;99.90;;;;;;5061009;28;20031;-85
2023/12/21 04:25:50;;;;;;;37.35;12.57;;;9.20;99.90;;;;;;5076613;28;20023;-81
2023/12/21 04:28:17;;;;;;;35.65;11.85;;;9.20;99.90;;;;;;5077985;28;20036;-82
2023/12/21 04:30:43;;;;;;;28.15;10.30;;;9.20;99.90;;;;;;5078260;28;20036;-83
2023/12/21 04:33:12;;;;;;;27.75;10.65;;;9.20;99.90;;;;;;5078989;28;20031;-83
2023/12/21 04:35:39;;;;;;;32.35;11.13;;;9.20;99.90;;;;;;5096961;27;20471;-82
2023/12/21 04:38:05;;;;;;;32.40;13.02;;;9.20;99.90;;;;;;5077271;28;20035;-83
2023/12/21 04:40:31;;;;;;;27.52;11.18;;;9.20;99.90;;;;;;5079214;28;20050;-79
2023/12/21 04:42:58;;;;;;;22.00;8.48;;;9.20;99.90;;;;;;5080544;27;20050;-81
2023/12/21 04:45:24;;;;;;;37.65;11.63;;;9.30;99.90;;;;;;5099038;27;20031;-84
2023/12/21 04:47:50;;;;;;;41.95;12.18;;;9.20;99.90;;;;;;5061592;27;20036;-82
2023/12/21 04:50:18;;;;;;;33.92;10.13;;;9.20;99.90;;;;;;5080457;27;20039;-82
2023/12/21 04:52:44;;;;;;;24.58;8.93;;;9.20;99.90;;;;;;5079538;28;20034;-85
2023/12/21 04:55:10;;;;;;;23.25;8.80;;;9.30;99.90;;;;;;5077996;27;20125;-84
2023/12/21 04:57:37;;;;;;;32.40;10.93;;;9.30;99.90;;;;;;5095515;27;20036;-84
2023/12/21 05:00:06;;;;;;;41.85;11.52;;;9.30;99.90;;;;;;5093097;28;20034;-82
2023/12/21 05:02:32;;;;;;;30.67;10.32;;;9.30;99.90;;;;;;5093047;28;20031;-82
2023/12/21 05:04:59;;;;;;;27.15;10.48;;;9.30;99.90;;;;;;5081680;28;20390;-82
2023/12/21 05:07:25;;;;;;;31.70;13.25;;;9.30;99.90;;;;;;5097428;28;20035;-77
2023/12/21 05:09:58;;;;;;;27.25;11.18;;;9.30;99.90;;;;;;5095659;28;20042;-85
2023/12/21 05:12:26;;;;;;;29.15;11.30;;;9.30;99.90;;;;;;5077149;28;20039;-86
2023/12/21 05:14:53;;;;;;;33.95;11.20;;;9.30;99.90;;;;;;5079940;27;20556;-83
2023/12/21 05:17:20;;;;;;;24.67;10.52;;;9.30;99.90;;;;;;5098040;28;20038;-87
2023/12/21 05:19:46;;;;;;;26.10;11.00;;;9.30;99.90;;;;;;5080843;28;20370;-85
2023/12/21 05:22:13;;;;;;;28.02;11.05;;;9.30;99.90;;;;;;5078668;28;20042;-82
2023/12/21 05:24:39;;;;;;;29.08;10.80;;;9.30;99.90;;;;;;5082683;28;20027;-78
2023/12/21 05:27:05;;;;;;;30.45;10.15;;;9.30;99.90;;;;;;5064573;28;20055;-79
2023/12/21 05:29:32;;;;;;;39.45;13.32;;;9.40;99.90;;;;;;5062421;28;20342;-88
2023/12/21 05:31:58;;;;;;;33.58;13.27;;;9.40;99.90;;;;;;5079361;28;20072;-82
2023/12/21 05:34:24;;;;;;;33.30;11.40;;;9.40;99.90;;;;;;5080833;28;20023;-82
2023/12/21 05:36:51;;;;;;;30.92;10.75;;;9.40;99.90;;;;;;5079828;28;20028;-86
2023/12/21 05:39:17;;;;;;;25.02;10.10;;;9.40;99.90;;;;;;5096837;28;20607;-76
2023/12/21 05:41:43;;;;;;;26.30;10.63;;;9.40;99.90;;;;;;5062439;28;20362;-85
2023/12/21 05:44:09;;;;;;;29.48;11.23;;;9.40;99.90;;;;;;5077359;28;20054;-86
2023/12/21 05:46:36;;;;;;;33.17;11.50;;;9.40;99.90;;;;;;5079213;28;20039;-84
2023/12/21 05:49:02;;;;;;;27.90;11.68;;;9.40;99.90;;;;;;5077552;28;20023;-86
2023/12/21 05:51:28;;;;;;;26.40;9.43;;;9.40;99.90;;;;;;5095845;28;20035;-85
2023/12/21 05:53:55;;;;;;;25.27;11.13;;;9.40;99.90;;;;;;5042729;28;20039;-82
2023/12/21 05:56:21;;;;;;;28.40;11.82;;;9.40;99.90;;;;;;5066098;28;20402;-80
2023/12/21 05:58:47;;;;;;;33.65;12.30;;;9.40;99.90;;;;;;5077392;28;20035;-83
2023/12/21 06:01:14;;;;;;;20.55;9.60;;;9.40;99.90;;;;;;5075762;28;20035;-85
2023/12/21 06:03:40;;;;;;;31.75;12.48;;;9.40;99.90;;;;;;5059561;28;20035;-86
2023/12/21 06:06:06;;;;;;;26.90;12.70;;;9.40;99.90;;;;;;5075016;28;20478;-81
2023/12/21 06:08:32;;;;;;;24.90;12.38;;;9.40;99.90;;;;;;5059556;28;20883;-85
2023/12/21 06:10:59;;;;;;;27.60;13.70;;;9.40;99.90;;;;;;5075912;28;20024;-85
2023/12/21 06:13:28;;;;;;;27.90;13.27;;;9.40;99.90;;;;;;5092009;28;20478;-78
2023/12/21 06:15:54;;;;;;;20.20;11.68;;;9.50;99.90;;;;;;5045696;28;20040;-84
2023/12/21 06:18:21;;;;;;;20.60;12.32;;;9.40;99.90;;;;;;5096171;28;20027;-83
2023/12/21 06:20:47;;;;;;;19.67;11.13;;;9.40;99.90;;;;;;5075970;28;20027;-80
2023/12/21 06:23:14;;;;;;;21.08;12.90;;;9.40;99.90;;;;;;5076302;28;20031;-81
2023/12/21 06:25:40;;;;;;;23.58;12.95;;;9.50;99.90;;;;;;5070278;28;20031;-84
2023/12/21 06:28:06;;;;;;;24.63;10.90;;;9.40;99.90;;;;;;5107177;27;20387;-84
2023/12/21 06:30:32;;;;;;;20.00;10.82;;;9.50;99.90;;;;;;5074346;28;20024;-81
2023/12/21 06:32:59;;;;;;;18.58;10.40;;;9.40;99.90;;;;;;5093864;28;20028;-82
2023/12/21 06:35:25;;;;;;;20.83;11.35;;;9.50;99.90;;;;;;5074187;28;20027;-77
2023/12/21 06:37:52;;;;;;;26.33;11.88;;;9.50;99.90;;;;;;5075221;28;20031;-85
2023/12/21 06:40:18;;;;;;;18.42;10.25;;;9.50;99.90;;;;;;5059413;28;20039;-82
2023/12/21 06:42:44;;;;;;;18.83;10.45;;;9.50;99.90;;;;;;5059756;28;20055;-81
2023/12/21 06:45:11;;;;;;;20.50;10.93;;;9.50;99.90;;;;;;5059121;28;20035;-85
2023/12/21 06:47:38;;;;;;;23.02;11.48;;;9.50;99.90;;;;;;5077327;28;20502;-82
2023/12/21 06:50:05;;;;;;;19.55;10.60;;;9.50;99.90;;;;;;5061559;28;21253;-82
2023/12/21 06:52:31;;;;;;;19.10;9.40;;;9.50;99.90;;;;;;5076473;28;20391;-84
2023/12/21 06:54:58;;;;;;;18.50;9.95;;;9.50;99.90;;;;;;5092361;28;20502;-82
2023/12/21 06:57:24;;;;;;;21.25;13.57;;;9.50;99.90;;;;;;5107498;27;20028;-79
2023/12/21 06:59:50;;;;;;;18.33;10.98;;;9.50;99.90;;;;;;5076399;28;20023;-80
2023/12/21 07:02:17;;;;;;;25.13;11.57;;;9.50;99.90;;;;;;5046155;28;20043;-84
2023/12/21 07:04:43;;;;;;;19.77;10.02;;;9.60;99.90;;;;;;5078362;28;20054;-83
2023/12/21 07:07:09;;;;;;;26.63;12.40;;;9.50;99.90;;;;;;5075545;28;20028;-85
2023/12/21 07:09:36;;;;;;;20.33;10.48;;;9.50;99.90;;;;;;5062184;28;20498;-80
2023/12/21 07:12:04;;;;;;;28.75;12.65;;;9.50;99.90;;;;;;5078606;28;20028;-89
2023/12/21 07:14:30;;;;;;;22.05;11.52;;;9.50;99.90;;;;;;5077921;28;20030;-84
2023/12/21 07:16:56;;;;;;;28.67;11.32;;;9.50;99.90;;;;;;5095996;28;20031;-80
2023/12/21 07:19:23;;;;;;;20.77;10.77;;;9.50;99.90;;;;;;5062808;28;20032;-84
2023/12/21 07:21:49;;;;;;;23.92;11.73;;;9.50;99.90;;;;;;5095243;28;20048;-83
2023/12/21 07:24:15;;;;;;;25.67;11.18;;;9.50;99.90;;;;;;5075526;28;20028;-84
2023/12/21 07:26:42;;;;;;;25.50;10.48;;;9.50;99.90;;;;;;5063916;28;20042;-87
2023/12/21 07:29:08;;;;;;;26.88;10.00;;;9.50;99.90;;;;;;5065013;28;20399;-82
2023/12/21 07:31:34;;;;;;;26.60;9.27;;;9.50;99.90;;;;;;5097853;27;20027;-81
2023/12/21 07:34:01;;;;;;;30.98;10.13;;;9.50;99.90;;;;;;5064280;28;20585;-84
2023/12/21 07:36:27;;;;;;;21.08;7.05;;;9.50;99.90;;;;;;5097931;27;20031;-87
2023/12/21 07:38:54;;;;;;;23.23;7.45;;;9.50;99.90;;;;;;5063633;27;20043;-84
2023/12/21 07:41:20;;;;;;;17.17;7.10;;;9.50;99.90;;;;;;5099156;27;20050;-88
2023/12/21 07:43:46;;;;;;;20.48;7.28;;;9.50;99.90;;;;;;5066035;28;20532;-79
2023/12/21 07:46:14;;;;;;;16.23;6.57;;;9.50;99.90;;;;;;5046198;28;20039;-81
2023/12/21 07:48:40;;;;;;;27.50;6.82;;;9.50;99.90;;;;;;5079052;28;20035;-84
2023/12/21 07:51:10;;;;;;;22.30;7.43;;;9.50;99.90;;;;;;5080075;28;20039;-85
2023/12/21 07:53:37;;;;;;;20.65;7.82;;;9.50;99.90;;;;;;5078250;28;20757;-84
2023/12/21 07:56:04;;;;;;;23.08;7.60;;;9.50;99.90;;;;;;5046153;28;20036;-82
2023/12/21 07:58:31;;;;;;;24.55;7.30;;;9.50;99.90;;;;;;5078501;28;20073;-84
2023/12/21 08:00:57;;;;;;;18.73;6.88;;;9.50;99.90;;;;;;5092932;27;20027;-86
2023/12/21 08:03:23;;;;;;;23.88;7.82;;;9.50;99.90;;;;;;5074536;28;20032;-84
2023/12/21 08:05:49;;;;;;;20.75;6.03;;;9.60;99.90;;;;;;5062877;28;20038;-85
2023/12/21 08:08:16;;;;;;;23.15;7.25;;;9.50;99.90;;;;;;5077215;28;20038;-83
2023/12/21 08:10:43;;;;;;;17.17;6.28;;;9.50;99.90;;;;;;5078725;28;20070;-88
2023/12/21 08:13:09;;;;;;;18.77;5.82;;;9.50;99.90;;;;;;5080029;28;20035;-87
2023/12/21 08:15:36;;;;;;;20.17;5.75;;;9.60;99.90;;;;;;5080618;27;20042;-88
2023/12/21 08:18:02;;;;;;;17.13;5.75;;;9.50;99.90;;;;;;5098136;27;20363;-82
2023/12/21 08:20:29;;;;;;;13.10;5.25;;;9.60;99.90;;;;;;5061681;28;20032;-84
2023/12/21 08:22:58;;;;;;;12.23;4.68;;;9.60;99.90;;;;;;5079951;28;20390;-87
2023/12/21 08:25:24;;;;;;;17.70;4.22;;;9.60;99.90;;;;;;5078801;27;20039;-82
2023/12/21 08:27:51;;;;;;;14.23;3.63;;;9.60;99.90;;;;;;5062651;28;20048;-84
2023/12/21 08:30:17;;;;;;;7.38;3.50;;;9.60;99.90;;;;;;5060158;28;20039;-84
2023/12/21 08:32:44;;;;;;;12.13;4.50;;;9.60;99.90;;;;;;5062491;28;20047;-85
2023/12/21 08:35:10;;;;;;;16.00;4.40;;;9.60;99.90;;;;;;5059356;28;20050;-79
2023/12/21 08:37:37;;;;;;;8.88;2.92;;;9.70;99.90;;;;;;5079378;27;21055;-82
2023/12/21 08:40:04;;;;;;;11.98;3.42;;;9.60;99.90;;;;;;5078018;27;20031;-81
2023/12/21 08:42:31;;;;;;;8.40;2.97;;;9.70;99.90;;;;;;5077265;28;20047;-82
2023/12/21 08:45:02;;;;;;;13.95;3.95;;;9.70;99.90;;;;;;5076863;28;20036;-82
2023/12/21 08:47:29;;;;;;;9.32;3.05;;;9.70;99.90;;;;;;5078660;28;20035;-82
2023/12/21 08:50:03;;;;;;;11.30;4.00;;;9.70;99.90;;;;;;5064059;27;20079;-81
2023/12/21 08:52:29;;;;;;;12.05;4.28;;;9.70;99.90;;;;;;5063483;28;20117;-86
2023/12/21 08:54:55;;;;;;;11.05;3.58;;;9.70;99.90;;;;;;5098136;27;20043;-81
2023/12/21 08:57:22;;;;;;;8.35;3.45;;;9.80;99.90;;;;;;5097367;27;21000;-83
2023/12/21 08:59:48;;;;;;;10.05;3.15;;;9.80;99.90;;;;;;5080578;28;20031;-80
2023/12/21 09:02:15;;;;;;;8.45;2.78;;;9.80;99.90;;;;;;5098331;27;20046;-75
2023/12/21 09:04:41;;;;;;;13.18;4.00;;;9.80;99.90;;;;;;5067639;28;20043;-80
2023/12/21 09:07:07;;;;;;;10.20;3.28;;;9.80;99.90;;;;;;5063928;28;20034;-79
2023/12/21 09:09:34;;;;;;;11.45;4.20;;;9.80;99.90;;;;;;5104830;27;23064;-83
2023/12/21 09:12:00;;;;;;;11.32;4.00;;;9.80;99.90;;;;;;5082042;28;20039;-81
2023/12/21 09:14:28;;;;;;;9.52;3.63;;;9.90;99.90;;;;;;5067270;28;20093;-82
2023/12/21 09:16:54;;;;;;;14.15;4.13;;;9.90;99.90;;;;;;5065057;28;20031;-83
2023/12/21 09:19:21;;;;;;;13.05;5.00;;;9.90;99.90;;;;;;5062711;28;20036;-83
2023/12/21 09:21:47;;;;;;;14.32;4.85;;;9.90;99.90;;;;;;5079432;28;20046;-80
2023/12/21 09:24:14;;;;;;;9.73;4.15;;;9.90;99.90;;;;;;5063638;28;20054;-82
2023/12/21 09:26:40;;;;;;;10.60;3.80;;;10.00;99.90;;;;;;5065038;28;20035;-77
2023/12/21 09:29:06;;;;;;;14.88;4.28;;;10.00;99.90;;;;;;5063620;28;20024;-82
2023/12/21 09:31:33;;;;;;;13.98;4.18;;;10.00;99.90;;;;;;5048965;28;20059;-82
2023/12/21 09:33:59;;;;;;;10.30;3.45;;;10.00;99.90;;;;;;5100401;28;20039;-83
2023/12/21 09:36:25;;;;;;;10.52;3.50;;;10.00;99.90;;;;;;5063497;28;20478;-82
2023/12/21 09:38:52;;;;;;;18.10;3.65;;;10.00;99.90;;;;;;5079901;28;20028;-77
2023/12/21 09:41:18;;;;;;;11.85;3.22;;;10.00;99.90;;;;;;5063211;28;20032;-82
2023/12/21 09:43:47;;;;;;;12.63;4.00;;;10.00;99.90;;;;;;5059314;28;20039;-83
2023/12/21 09:46:15;;;;;;;15.75;3.85;;;10.00;99.90;;;;;;5061287;28;20039;-77
2023/12/21 09:48:43;;;;;;;11.18;2.90;;;10.10;99.90;;;;;;5063460;28;20046;-82
2023/12/21 09:51:13;;;;;;;12.93;3.40;;;10.10;99.90;;;;;;5077826;28;20368;-83
2023/12/21 09:53:40;;;;;;;11.55;3.55;;;10.10;99.90;;;;;;5078695;28;20042;-84
2023/12/21 09:56:08;;;;;;;11.40;3.30;;;10.10;99.90;;;;;;5095531;28;20474;-82
2023/12/21 09:58:35;;;;;;;15.52;4.38;;;10.10;99.90;;;;;;5076869;28;20044;-83
2023/12/21 10:01:01;;;;;;;11.52;3.85;;;10.10;99.90;;;;;;5078354;28;20032;-87
2023/12/21 10:03:27;;;;;;;16.02;4.10;;;10.20;99.90;;;;;;5095526;28;20424;-80
2023/12/21 10:05:54;;;;;;;10.20;3.42;;;10.20;99.90;;;;;;5095504;28;20031;-86
2023/12/21 10:08:20;;;;;;;12.90;3.80;;;10.20;99.90;;;;;;5045562;28;20501;-86
2023/12/21 10:10:47;;;;;;;18.20;4.43;;;10.20;99.90;;;;;;5096754;28;20490;-82
2023/12/21 10:13:13;;;;;;;13.80;3.30;;;10.20;99.90;;;;;;5048389;28;20027;-86
2023/12/21 10:15:40;;;;;;;13.98;2.88;;;10.20;99.90;;;;;;5101252;27;20042;-82
2023/12/21 10:18:07;;;;;;;11.18;2.60;;;10.30;99.90;;;;;;5065434;28;20044;-88
2023/12/21 10:20:33;;;;;;;11.15;1.88;;;10.20;99.90;;;;;;5082593;28;20556;-85
2023/12/21 10:23:00;;;;;;;11.30;2.28;;;10.30;99.90;;;;;;5064349;28;20035;-90
2023/12/21 10:25:26;;;;;;;12.15;2.78;;;10.30;99.90;;;;;;5080403;28;20466;-78
2023/12/21 10:27:56;;;;;;;13.50;1.90;;;10.30;99.90;;;;;;5099963;27;20044;-89
2023/12/21 10:30:24;;;;;;;8.57;1.55;;;10.30;99.90;;;;;;5053258;28;20505;-81
2023/12/21 10:32:57;;;;;;;10.15;1.75;;;10.40;99.90;;;;;;5082955;28;20039;-79
2023/12/21 10:35:23;;;;;;;5.97;1.17;;;10.40;99.90;;;;;;5081410;28;20040;-83
2023/12/21 10:37:50;;;;;;;10.02;2.80;;;10.40;99.90;;;;;;5063180;28;20032;-77
2023/12/21 10:40:17;;;;;;;9.75;2.70;;;10.40;99.90;;;;;;5046890;28;20036;-84
2023/12/21 10:42:47;;;;;;;9.00;2.25;;;10.50;99.90;;;;;;5068477;28;20046;-84
2023/12/21 10:45:16;;;;;;;13.13;3.00;;;10.50;99.90;;;;;;5066025;28;20054;-84
2023/12/21 10:47:50;;;;;;;11.32;2.97;;;10.50;99.90;;;;;;5082296;28;20047;-86
2023/12/21 10:50:18;;;;;;;15.70;3.95;;;10.50;99.90;;;;;;5080346;28;20051;-85
2023/12/21 10:52:46;;;;;;;9.32;2.50;;;10.50;99.90;;;;;;5100855;27;20035;-83
2023/12/21 10:55:16;;;;;;;10.13;2.78;;;10.60;99.90;;;;;;5064190;28;20028;-79
2023/12/21 10:57:43;;;;;;;12.52;2.33;;;10.60;99.90;;;;;;5063456;28;20050;-84
2023/12/21 11:00:15;;;;;;;8.18;2.42;;;10.60;99.90;;;;;;5084313;27;20043;-86
2023/12/21 11:02:45;;;;;;;9.82;2.10;;;10.60;99.90;;;;;;5083180;27;20047;-86
2023/12/21 11:05:22;;;;;;;9.88;2.25;;;10.60;99.90;;;;;;5065491;28;20048;-88
2023/12/21 11:07:50;;;;;;;10.02;2.50;;;10.60;99.90;;;;;;5065438;28;20047;-86
2023/12/21 11:10:19;;;;;;;13.10;2.80;;;10.70;99.90;;;;;;5063688;28;20032;-89
2023/12/21 11:12:46;;;;;;;8.07;2.10;;;10.70;99.90;;;;;;5083455;28;20035;-88
2023/12/21 11:15:14;;;;;;;9.30;1.45;;;10.70;99.90;;;;;;5080037;27;20478;-89
2023/12/21 11:17:45;;;;;;;8.73;1.63;;;10.60;99.90;;;;;;5082169;27;20035;-87
2023/12/21 11:20:18;;;;;;;9.77;1.42;;;10.70;99.90;;;;;;5086714;27;20027;-86
2023/12/21 11:22:48;;;;;;;9.77;1.58;;;10.70;99.90;;;;;;5052957;28;20035;-89
2023/12/21 11:25:20;;;;;;;6.70;1.35;;;10.70;99.90;;;;;;5081976;28;20043;-89
2023/12/21 11:27:47;;;;;;;6.85;1.45;;;10.60;99.90;;;;;;5081136;28;20278;-88
2023/12/21 11:30:14;;;;;;;5.72;0.88;;;10.60;99.90;;;;;;5100829;27;20020;-92
2023/12/21 11:32:42;;;;;;;6.88;1.00;;;10.60;99.90;;;;;;5066719;28;20437;-89
2023/12/21 11:35:22;;;;;;;8.05;1.45;;;10.60;99.90;;;;;;5050266;28;20046;-87
2023/12/21 11:37:52;;;;;;;6.78;0.95;;;10.60;99.90;;;;;;5084956;27;20588;-86
2023/12/21 11:40:20;;;;;;;7.53;1.00;;;10.60;99.90;;;;;;5062438;27;20043;-86
2023/12/21 11:42:48;;;;;;;9.40;1.38;;;10.60;99.90;;;;;;5065112;28;20039;-89
2023/12/21 11:45:31;;;;;;;4.43;0.80;;;10.70;99.90;;;;;;5065588;27;20066;-91
2023/12/21 11:47:59;;;;;;;;;;;10.60;99.90;;;;;;5080693;27;20036;-87
2023/12/21 11:50:33;;;;;;;8.38;1.48;;;10.60;99.90;;;;;;5096260;28;19923;-88
2023/12/21 11:53:10;;;;;;;9.93;1.30;;;10.70;99.90;;;;;;5045873;28;20039;-88
2023/12/21 11:55:44;;;;;;;6.38;1.30;;;10.70;99.90;;;;;;5080245;28;20024;-90
2023/12/21 11:58:19;;;;;;;8.50;1.17;;;10.80;99.90;;;;;;5080154;28;20035;-85
2023/12/21 12:00:55;;;;;;;6.07;1.60;;;10.70;99.90;;;;;;5049391;28;20089;-86
2023/12/21 12:03:27;;;;;;;8.50;1.15;;;10.70;99.90;;;;;;5049230;28;20529;-88
2023/12/21 12:06:01;;;;;;;9.25;1.75;;;10.70;99.90;;;;;;5081259;27;20113;-85
2023/12/21 12:08:27;;;;;;;10.77;1.33;;;10.70;99.90;;;;;;5079346;28;20027;-85
2023/12/21 12:10:55;;;;;;;9.90;1.38;;;10.70;99.90;;;;;;5098563;27;20038;-82
2023/12/21 12:13:22;;;;;;;9.13;1.35;;;10.70;99.90;;;;;;5083275;28;20027;-83
2023/12/21 12:15:50;;;;;;;8.57;1.60;;;10.70;99.90;;;;;;5063749;28;20039;-80
2023/12/21 12:18:18;;;;;;;11.50;2.13;;;10.80;99.90;;;;;;5048738;27;20027;-84
2023/12/21 12:20:47;;;;;;;11.27;2.03;;;10.80;99.90;;;;;;5065214;28;20023;-78
2023/12/21 12:23:14;;;;;;;11.52;1.85;;;10.80;99.90;;;;;;5046349;27;20024;-86
2023/12/21 12:25:42;;;;;;;9.25;2.03;;;10.90;99.90;;;;;;5062895;28;20045;-82
2023/12/21 12:28:09;;;;;;;11.77;2.03;;;10.90;99.90;;;;;;5062579;27;20359;-81
2023/12/21 12:30:36;;;;;;;8.45;1.33;;;11.00;99.90;;;;;;5063883;28;20036;-78
2023/12/21 12:33:05;;;;;;;11.05;1.48;;;11.10;99.90;;;;;;5076891;28;20039;-76
2023/12/21 12:35:32;;;;;;;6.95;0.90;;;11.10;99.90;;;;;;5044274;28;20036;-83
2023/12/21 12:37:58;;;;;;;8.82;1.13;;;11.10;99.90;;;;;;5045018;28;20036;-78
2023/12/21 12:40:25;;;;;;;11.10;1.60;;;11.00;99.90;;;;;;5098435;27;20028;-82